Time;durP1;ratioP1;P1;durP2;ratioP2;P2;SDS_P1;SDS_P2;PMS_P1;PMS_P2;Temp;Humidity;BMP_temperature;BMP_pressure;BME280_temperature;BME280_humidity;BME280_pressure;Samples;Min_cycle;Max_cycle;Signal;HPM_P1;HPM_P2
2021/06/22 00:02:16;;;;;;;5.00;2.90;;;23.70;54.30;;;;;;5097929;28;20457;-85
2021/06/22 00:04:43;;;;;;;7.73;4.13;;;23.80;53.80;;;;;;5098057;28;20451;-86
2021/06/22 00:07:13;;;;;;;7.73;4.00;;;24.10;52.00;;;;;;5097546;28;20427;-86
2021/06/22 00:09:40;;;;;;;10.73;3.50;;;24.40;51.50;;;;;;5088859;28;20823;-87
2021/06/22 00:12:08;;;;;;;9.80;3.90;;;24.60;51.40;;;;;;5080182;28;20565;-87
2021/06/22 00:14:37;;;;;;;6.03;3.70;;;24.60;51.40;;;;;;5080017;28;20875;-87
2021/06/22 00:17:04;;;;;;;7.50;3.70;;;24.50;50.80;;;;;;5079473;28;20451;-87
2021/06/22 00:19:31;;;;;;;11.43;4.23;;;24.60;51.30;;;;;;5078924;28;20515;-87
2021/06/22 00:21:58;;;;;;;14.10;4.13;;;24.40;51.70;;;;;;5078610;28;20484;-87
2021/06/22 00:24:25;;;;;;;17.40;5.07;;;24.30;52.00;;;;;;5078816;28;20506;-87
2021/06/22 00:26:52;;;;;;;4.70;3.90;;;24.20;52.60;;;;;;5078416;28;20483;-87
2021/06/22 00:29:21;;;;;;;8.33;4.67;;;24.10;52.40;;;;;;5079359;28;20431;-87
2021/06/22 00:31:49;;;;;;;6.93;4.00;;;24.00;53.40;;;;;;5080413;28;20483;-87
2021/06/22 00:34:16;;;;;;;6.90;2.90;;;24.00;52.60;;;;;;5082445;28;20511;-86
2021/06/22 00:36:43;;;;;;;6.97;4.57;;;24.10;51.70;;;;;;5095935;28;20432;-85
2021/06/22 00:39:10;;;;;;;4.37;2.73;;;24.20;51.90;;;;;;5100953;28;20439;-85
2021/06/22 00:41:37;;;;;;;6.13;4.20;;;24.20;50.90;;;;;;5100830;28;20419;-85
2021/06/22 00:44:04;;;;;;;9.63;4.50;;;24.20;52.10;;;;;;5100902;28;20419;-83
2021/06/22 00:46:31;;;;;;;4.50;3.63;;;24.00;52.60;;;;;;5100711;28;20443;-84
2021/06/22 00:49:00;;;;;;;11.27;4.07;;;23.90;52.50;;;;;;5100366;28;20436;-86
2021/06/22 00:51:27;;;;;;;7.43;4.20;;;23.50;53.60;;;;;;5098941;28;20512;-86
2021/06/22 00:53:55;;;;;;;7.13;3.10;;;23.50;53.70;;;;;;5100296;28;20428;-84
2021/06/22 00:56:23;;;;;;;5.30;3.93;;;23.60;53.00;;;;;;5089557;28;20447;-86
2021/06/22 00:58:52;;;;;;;17.73;4.80;;;23.90;52.30;;;;;;5079348;28;20436;-86
2021/06/22 01:01:19;;;;;;;8.20;4.20;;;24.00;52.50;;;;;;5078068;28;20439;-86
2021/06/22 01:03:46;;;;;;;14.20;4.57;;;23.80;52.70;;;;;;5079108;28;20447;-87
2021/06/22 01:06:14;;;;;;;7.83;3.60;;;23.80;52.60;;;;;;5079550;28;20456;-87
2021/06/22 01:08:41;;;;;;;8.47;3.30;;;24.00;51.60;;;;;;5079968;28;20967;-86
2021/06/22 01:11:08;;;;;;;5.20;2.80;;;24.10;50.90;;;;;;5077466;28;20443;-87
2021/06/22 01:13:35;;;;;;;7.70;3.20;;;24.30;50.10;;;;;;5077020;28;20477;-87
2021/06/22 01:16:02;;;;;;;5.73;3.30;;;24.40;49.80;;;;;;5077000;28;21052;-87
2021/06/22 01:18:29;;;;;;;9.13;4.30;;;24.30;50.50;;;;;;5078058;28;20447;-87
2021/06/22 01:20:58;;;;;;;11.73;5.00;;;24.10;51.30;;;;;;5078113;28;20463;-87
2021/06/22 01:23:25;;;;;;;7.97;3.53;;;23.80;52.20;;;;;;5077016;28;20451;-87
2021/06/22 01:25:52;;;;;;;7.10;4.37;;;23.70;52.00;;;;;;5076823;28;20502;-87
2021/06/22 01:28:19;;;;;;;11.43;4.33;;;23.70;52.30;;;;;;5078058;28;20470;-87
2021/06/22 01:30:46;;;;;;;13.70;7.33;;;23.70;52.30;;;;;;5077295;28;20452;-88
2021/06/22 01:33:13;;;;;;;8.70;5.03;;;23.80;52.10;;;;;;5076284;28;20509;-87
2021/06/22 01:35:40;;;;;;;13.87;4.90;;;23.60;52.40;;;;;;5075787;28;20474;-87
2021/06/22 01:38:10;;;;;;;11.27;5.20;;;23.60;52.50;;;;;;5057517;28;20439;-87
2021/06/22 01:40:43;;;;;;;19.50;6.30;;;23.50;53.00;;;;;;5080106;28;20450;-87
2021/06/22 01:43:11;;;;;;;10.53;4.37;;;23.40;53.70;;;;;;5081564;28;20428;-86
2021/06/22 01:45:38;;;;;;;14.20;7.00;;;23.20;53.90;;;;;;5088511;28;20638;-86
2021/06/22 01:48:05;;;;;;;8.97;5.00;;;23.20;54.60;;;;;;5099358;28;20427;-85
2021/06/22 01:50:33;;;;;;;16.00;6.47;;;23.10;54.90;;;;;;5099252;28;20431;-83
2021/06/22 01:53:00;;;;;;;15.50;7.90;;;23.30;54.20;;;;;;5099325;28;20483;-85
2021/06/22 01:55:38;;;;;;;12.83;5.47;;;23.50;52.90;;;;;;5099459;28;20515;-83
2021/06/22 01:58:07;;;;;;;7.57;3.70;;;23.60;53.40;;;;;;5099357;28;20447;-84
2021/06/22 02:00:34;;;;;;;4.20;3.63;;;23.70;52.70;;;;;;5088551;28;20454;-87
2021/06/22 02:03:01;;;;;;;12.67;3.43;;;23.90;51.50;;;;;;5079350;28;20538;-87
2021/06/22 02:05:28;;;;;;;11.10;6.73;;;23.90;51.80;;;;;;5077427;28;20467;-87
2021/06/22 02:07:55;;;;;;;10.13;4.70;;;24.10;51.80;;;;;;5077719;28;20470;-87
2021/06/22 02:10:22;;;;;;;4.57;3.90;;;24.10;51.30;;;;;;5078766;28;20459;-87
2021/06/22 02:12:50;;;;;;;9.50;6.10;;;23.90;52.20;;;;;;5074851;28;20998;-87
2021/06/22 02:15:18;;;;;;;8.07;4.37;;;24.10;52.00;;;;;;5075879;28;20502;-87
2021/06/22 02:17:45;;;;;;;12.20;5.50;;;23.90;51.70;;;;;;5076538;28;20492;-87
2021/06/22 02:20:14;;;;;;;14.93;5.10;;;24.00;53.00;;;;;;5076164;28;20956;-87
2021/06/22 02:22:41;;;;;;;5.87;4.33;;;23.90;52.90;;;;;;5075779;28;20475;-87
2021/06/22 02:25:10;;;;;;;15.23;4.73;;;23.70;53.70;;;;;;5075783;28;20566;-86
2021/06/22 02:27:37;;;;;;;4.67;3.77;;;23.50;54.20;;;;;;5075240;28;20483;-86
2021/06/22 02:30:07;;;;;;;8.03;3.77;;;23.50;53.50;;;;;;5075681;28;20538;-87
2021/06/22 02:32:34;;;;;;;8.00;4.43;;;23.70;53.00;;;;;;5075691;28;20600;-87
2021/06/22 02:35:01;;;;;;;16.40;5.27;;;23.90;51.80;;;;;;5073909;28;20546;-86
2021/06/22 02:37:28;;;;;;;6.30;3.57;;;23.80;52.90;;;;;;5075511;28;20479;-87
2021/06/22 02:39:55;;;;;;;8.40;4.03;;;23.80;52.20;;;;;;5077646;28;20941;-87
2021/06/22 02:42:21;;;;;;;8.20;3.60;;;23.80;52.60;;;;;;5081032;28;20439;-87
2021/06/22 02:44:49;;;;;;;8.53;3.60;;;23.40;53.60;;;;;;5075801;28;20499;-86
2021/06/22 02:47:17;;;;;;;5.80;4.33;;;23.50;53.30;;;;;;5075506;28;20466;-86
2021/06/22 02:49:44;;;;;;;14.43;5.57;;;23.60;53.10;;;;;;5074249;28;20500;-86
2021/06/22 02:52:11;;;;;;;6.60;5.27;;;23.50;53.80;;;;;;5075249;28;20524;-86
2021/06/22 02:54:38;;;;;;;5.93;4.17;;;23.00;55.10;;;;;;5075519;28;20498;-86
2021/06/22 02:57:07;;;;;;;18.03;6.03;;;22.80;55.20;;;;;;5076515;28;20447;-86
2021/06/22 02:59:34;;;;;;;21.13;4.50;;;22.90;55.70;;;;;;5075293;28;20424;-86
2021/06/22 03:02:01;;;;;;;15.40;5.73;;;22.80;55.70;;;;;;5074631;28;20994;-86
2021/06/22 03:04:29;;;;;;;6.50;4.17;;;22.90;55.70;;;;;;5074220;28;20487;-86
2021/06/22 03:06:57;;;;;;;11.83;6.87;;;23.00;55.20;;;;;;5075415;28;20538;-86
2021/06/22 03:09:24;;;;;;;17.60;6.53;;;23.10;55.50;;;;;;5075075;28;20455;-86
2021/06/22 03:11:52;;;;;;;14.63;6.67;;;23.00;55.90;;;;;;5074947;28;20570;-86
2021/06/22 03:14:19;;;;;;;12.23;6.50;;;23.00;55.90;;;;;;5075442;28;20471;-86
2021/06/22 03:16:46;;;;;;;6.23;3.93;;;23.10;55.60;;;;;;5076398;28;20529;-87
2021/06/22 03:19:13;;;;;;;7.90;5.70;;;23.10;54.80;;;;;;5074496;28;20461;-86
2021/06/22 03:21:44;;;;;;;10.60;6.53;;;23.30;55.10;;;;;;5074608;28;20997;-87
2021/06/22 03:24:11;;;;;;;6.40;5.37;;;23.50;54.20;;;;;;5082943;28;20493;-86
2021/06/22 03:26:38;;;;;;;11.63;6.70;;;23.60;53.40;;;;;;5082577;28;20423;-86
2021/06/22 03:29:05;;;;;;;31.27;7.50;;;23.80;53.20;;;;;;5074408;28;20478;-86
2021/06/22 03:31:33;;;;;;;10.83;7.83;;;23.90;53.30;;;;;;5073266;28;20497;-86
2021/06/22 03:34:00;;;;;;;18.40;6.00;;;23.80;53.60;;;;;;5074183;28;20497;-86
2021/06/22 03:36:27;;;;;;;14.20;7.27;;;23.80;52.60;;;;;;5074156;28;20486;-86
2021/06/22 03:38:55;;;;;;;13.00;6.40;;;23.90;53.00;;;;;;5074813;28;20486;-86
2021/06/22 03:41:22;;;;;;;21.13;7.07;;;23.90;52.30;;;;;;5074074;28;20851;-86
2021/06/22 03:43:49;;;;;;;10.23;5.97;;;23.90;53.60;;;;;;5074237;28;20820;-87
2021/06/22 03:46:18;;;;;;;10.63;6.40;;;24.00;52.10;;;;;;5077422;28;20522;-86
2021/06/22 03:48:45;;;;;;;10.97;6.80;;;23.90;53.10;;;;;;5077334;28;20446;-87
2021/06/22 03:51:13;;;;;;;6.73;5.33;;;23.80;53.90;;;;;;5077708;28;20877;-87
2021/06/22 03:53:42;;;;;;;9.80;6.93;;;23.70;53.90;;;;;;5077992;28;20505;-87
2021/06/22 03:56:10;;;;;;;10.07;5.80;;;23.70;54.40;;;;;;5088453;28;20471;-87
2021/06/22 03:58:38;;;;;;;8.53;4.90;;;23.80;53.60;;;;;;5088187;28;20508;-87
2021/06/22 04:01:05;;;;;;;10.53;7.03;;;23.70;53.90;;;;;;5083069;28;20463;-85
2021/06/22 04:03:32;;;;;;;10.33;4.97;;;24.00;53.70;;;;;;5078203;28;20496;-86
2021/06/22 04:05:59;;;;;;;11.07;6.73;;;24.00;52.90;;;;;;5078573;28;20545;-87
2021/06/22 04:08:26;;;;;;;7.17;5.20;;;24.00;52.30;;;;;;5077900;28;20470;-87
2021/06/22 04:10:53;;;;;;;12.43;5.97;;;24.20;52.60;;;;;;5077864;28;20557;-87
2021/06/22 04:13:21;;;;;;;9.53;5.90;;;24.10;53.10;;;;;;5077602;28;20471;-86
2021/06/22 04:15:48;;;;;;;11.07;6.63;;;24.10;52.40;;;;;;5077227;28;20562;-87
2021/06/22 04:18:15;;;;;;;12.93;7.63;;;24.00;53.60;;;;;;5077533;28;20464;-87
2021/06/22 04:20:42;;;;;;;14.63;6.73;;;23.90;54.10;;;;;;5077615;28;20455;-87
2021/06/22 04:23:09;;;;;;;10.37;6.93;;;23.70;54.50;;;;;;5077387;28;20527;-86
2021/06/22 04:25:36;;;;;;;10.07;6.27;;;23.40;54.80;;;;;;5077297;28;20481;-87
2021/06/22 04:28:05;;;;;;;16.17;6.63;;;23.60;55.00;;;;;;5078011;28;20482;-87
2021/06/22 04:30:35;;;;;;;21.40;6.87;;;23.60;54.90;;;;;;5077211;28;20435;-86
2021/06/22 04:33:02;;;;;;;10.60;5.93;;;23.70;55.00;;;;;;5077613;28;20483;-86
2021/06/22 04:35:30;;;;;;;20.20;7.30;;;23.70;54.70;;;;;;5077382;28;20471;-85
2021/06/22 04:37:58;;;;;;;10.30;6.50;;;23.80;54.70;;;;;;5078028;28;20524;-85
2021/06/22 04:40:25;;;;;;;20.03;6.97;;;23.70;54.50;;;;;;5077271;28;20443;-86
2021/06/22 04:42:52;;;;;;;14.17;6.87;;;23.80;54.60;;;;;;5077874;28;20486;-85
2021/06/22 04:45:19;;;;;;;13.73;5.17;;;23.60;55.60;;;;;;5079025;28;20514;-86
2021/06/22 04:47:47;;;;;;;18.90;5.80;;;23.70;54.80;;;;;;5080112;28;20471;-86
2021/06/22 04:50:14;;;;;;;8.00;4.50;;;23.50;54.30;;;;;;5080980;28;20439;-86
2021/06/22 04:52:41;;;;;;;5.90;5.30;;;23.40;54.80;;;;;;5080510;28;20487;-86
2021/06/22 04:55:12;;;;;;;6.00;5.63;;;23.50;54.80;;;;;;5081676;28;20459;-85
2021/06/22 04:57:40;;;;;;;16.17;5.90;;;23.60;54.90;;;;;;5080228;28;20435;-86
2021/06/22 05:00:08;;;;;;;16.27;5.87;;;23.40;54.80;;;;;;5080357;28;20516;-86
2021/06/22 05:02:35;;;;;;;19.30;5.03;;;23.60;54.90;;;;;;5080702;28;20489;-86
2021/06/22 05:05:05;;;;;;;6.03;4.87;;;23.50;54.80;;;;;;5081139;28;20482;-86
2021/06/22 05:07:32;;;;;;;6.00;4.67;;;23.60;54.60;;;;;;5080153;28;20772;-86
2021/06/22 05:09:59;;;;;;;7.60;4.73;;;23.80;54.00;;;;;;5081902;28;20933;-87
2021/06/22 05:12:27;;;;;;;7.50;5.10;;;24.00;53.60;;;;;;5094351;28;20438;-87
2021/06/22 05:14:54;;;;;;;14.60;5.40;;;24.00;53.70;;;;;;5098912;28;20459;-86
2021/06/22 05:17:21;;;;;;;7.90;4.63;;;24.10;54.10;;;;;;5098156;28;20451;-85
2021/06/22 05:19:48;;;;;;;7.97;4.83;;;24.10;54.10;;;;;;5083979;28;20458;-86
2021/06/22 05:22:16;;;;;;;9.40;5.60;;;24.10;54.00;;;;;;5088721;28;20448;-87
2021/06/22 05:24:44;;;;;;;10.20;5.40;;;24.10;54.10;;;;;;5098259;28;20478;-86
2021/06/22 05:27:12;;;;;;;11.97;4.80;;;24.00;53.60;;;;;;5098678;28;20435;-86
2021/06/22 05:29:39;;;;;;;7.43;4.60;;;23.90;54.40;;;;;;5097668;28;20431;-86
2021/06/22 05:32:07;;;;;;;6.70;4.30;;;23.50;54.20;;;;;;5085035;28;20455;-86
2021/06/22 05:34:34;;;;;;;7.30;4.30;;;23.00;55.50;;;;;;5075038;28;20565;-86
2021/06/22 05:37:01;;;;;;;16.47;5.00;;;23.10;56.50;;;;;;5074958;28;20456;-86
2021/06/22 05:39:29;;;;;;;16.40;5.70;;;23.50;55.50;;;;;;5075395;28;20436;-86
2021/06/22 05:41:56;;;;;;;7.70;4.03;;;23.80;55.10;;;;;;5076047;28;20469;-85
2021/06/22 05:44:23;;;;;;;11.73;4.00;;;24.00;53.60;;;;;;5075069;28;20458;-86
2021/06/22 05:46:50;;;;;;;16.50;5.03;;;24.30;53.70;;;;;;5076643;28;20453;-86
2021/06/22 05:49:17;;;;;;;13.57;4.17;;;24.40;53.50;;;;;;5075089;28;20455;-85
2021/06/22 05:51:45;;;;;;;15.93;4.80;;;24.10;53.50;;;;;;5075226;28;20601;-85
2021/06/22 05:54:12;;;;;;;6.27;4.33;;;23.70;55.00;;;;;;5074989;28;21010;-85
2021/06/22 05:56:40;;;;;;;5.03;3.43;;;23.70;54.50;;;;;;5075272;28;20542;-85
2021/06/22 05:59:08;;;;;;;8.83;4.20;;;24.00;53.10;;;;;;5074693;28;20452;-85
2021/06/22 06:01:35;;;;;;;12.67;4.30;;;24.00;53.60;;;;;;5074515;28;20526;-85
2021/06/22 06:04:01;;;;;;;10.80;4.63;;;24.10;53.00;;;;;;5074961;28;20483;-85
2021/06/22 06:06:28;;;;;;;6.33;4.60;;;23.90;53.70;;;;;;5086834;28;20457;-85
2021/06/22 06:08:55;;;;;;;14.13;5.27;;;23.80;54.00;;;;;;5088225;28;20448;-85
2021/06/22 06:11:22;;;;;;;10.10;5.33;;;23.80;54.60;;;;;;5074857;28;20518;-85
2021/06/22 06:13:50;;;;;;;12.80;5.70;;;23.80;54.60;;;;;;5074232;28;20599;-85
2021/06/22 06:16:17;;;;;;;7.97;5.33;;;23.60;54.90;;;;;;5073558;28;20534;-85
2021/06/22 06:18:44;;;;;;;7.60;5.50;;;23.60;54.90;;;;;;5073852;28;20439;-85
2021/06/22 06:21:11;;;;;;;8.00;5.77;;;23.60;54.90;;;;;;5074122;28;20981;-85
2021/06/22 06:23:40;;;;;;;10.70;5.60;;;23.50;54.80;;;;;;5073999;28;20470;-85
2021/06/22 06:26:09;;;;;;;22.13;6.40;;;23.50;55.20;;;;;;5074236;28;20483;-84
2021/06/22 06:28:41;;;;;;;10.97;5.73;;;23.80;55.40;;;;;;5075449;28;20443;-85
2021/06/22 06:31:09;;;;;;;13.13;6.90;;;24.00;55.30;;;;;;5075092;28;20883;-85
2021/06/22 06:33:36;;;;;;;9.57;4.90;;;24.10;55.50;;;;;;5076599;28;20483;-84
2021/06/22 06:36:03;;;;;;;6.40;4.63;;;24.60;54.20;;;;;;5075996;28;20495;-85
2021/06/22 06:38:30;;;;;;;15.27;5.50;;;25.30;54.50;;;;;;5075686;28;20504;-85
2021/06/22 06:40:57;;;;;;;12.57;4.93;;;26.00;49.70;;;;;;5074947;28;20443;-84
2021/06/22 06:43:24;;;;;;;6.50;4.30;;;26.30;50.00;;;;;;5074290;28;20447;-84
2021/06/22 06:45:51;;;;;;;9.20;4.23;;;26.60;48.20;;;;;;5074409;28;20494;-85
2021/06/22 06:48:20;;;;;;;7.57;4.20;;;26.50;48.10;;;;;;5074633;28;20856;-84
2021/06/22 06:50:47;;;;;;;10.03;5.00;;;26.20;48.50;;;;;;5074683;28;20489;-85
2021/06/22 06:53:15;;;;;;;15.47;5.83;;;26.30;48.80;;;;;;5075168;28;20513;-85
2021/06/22 06:55:43;;;;;;;12.33;5.23;;;26.30;48.60;;;;;;5077447;28;20459;-85
2021/06/22 06:58:10;;;;;;;9.67;5.77;;;26.10;48.30;;;;;;5074127;28;20562;-85
2021/06/22 07:00:39;;;;;;;10.57;5.50;;;26.20;48.20;;;;;;5074465;28;20478;-85
2021/06/22 07:03:07;;;;;;;16.50;5.47;;;26.00;49.00;;;;;;5074211;28;20522;-85
2021/06/22 07:05:36;;;;;;;11.50;5.40;;;26.00;49.00;;;;;;5075140;28;20862;-85
2021/06/22 07:08:05;;;;;;;8.20;5.20;;;26.30;48.10;;;;;;5074054;28;20471;-85
2021/06/22 07:10:33;;;;;;;8.53;5.37;;;26.30;48.10;;;;;;5074184;28;20534;-85
2021/06/22 07:13:03;;;;;;;8.10;5.30;;;26.30;48.70;;;;;;5073589;28;20449;-85
2021/06/22 07:15:31;;;;;;;7.40;4.63;;;26.20;48.50;;;;;;5073175;28;20556;-85
2021/06/22 07:17:58;;;;;;;8.60;5.60;;;26.00;49.20;;;;;;5073435;28;20467;-85
2021/06/22 07:20:25;;;;;;;8.10;5.80;;;26.20;48.60;;;;;;5075870;28;20443;-84
2021/06/22 07:22:53;;;;;;;11.23;5.60;;;26.10;50.00;;;;;;5077976;28;20542;-84
2021/06/22 07:25:25;;;;;;;12.43;5.70;;;25.90;49.70;;;;;;5077275;28;20463;-85
2021/06/22 07:27:52;;;;;;;8.00;4.87;;;26.20;49.20;;;;;;5078257;28;20431;-85
2021/06/22 07:30:23;;;;;;;8.93;4.83;;;26.30;47.20;;;;;;5077834;28;20964;-85
2021/06/22 07:32:50;;;;;;;13.43;4.80;;;26.20;47.40;;;;;;5078143;28;20431;-84
2021/06/22 07:35:17;;;;;;;8.23;5.00;;;26.10;48.10;;;;;;5076928;28;20514;-84
2021/06/22 07:37:45;;;;;;;6.93;4.73;;;26.00;48.60;;;;;;5077542;28;20470;-85
2021/06/22 07:40:14;;;;;;;9.60;4.73;;;26.00;49.10;;;;;;5077388;28;20435;-86
2021/06/22 07:42:41;;;;;;;8.80;4.70;;;26.00;49.30;;;;;;5077592;28;20862;-86
2021/06/22 07:45:09;;;;;;;10.87;4.53;;;26.20;48.60;;;;;;5078373;28;20541;-86
2021/06/22 07:47:36;;;;;;;8.90;5.23;;;26.10;49.80;;;;;;5078520;28;20556;-86
2021/06/22 07:50:03;;;;;;;8.40;4.97;;;26.20;49.60;;;;;;5078724;28;20520;-87
2021/06/22 07:52:30;;;;;;;8.53;5.40;;;26.10;49.70;;;;;;5077239;28;20481;-86
2021/06/22 07:54:57;;;;;;;28.13;5.00;;;25.90;49.70;;;;;;5076834;28;20536;-86
2021/06/22 07:57:25;;;;;;;5.90;4.77;;;26.00;49.70;;;;;;5076807;28;20465;-86
2021/06/22 07:59:52;;;;;;;8.03;4.40;;;26.00;49.70;;;;;;5080929;28;20454;-84
2021/06/22 08:02:19;;;;;;;9.53;5.30;;;25.90;50.10;;;;;;5088445;28;20804;-86
2021/06/22 08:04:46;;;;;;;6.90;4.30;;;25.80;51.40;;;;;;5089122;28;20451;-86
2021/06/22 08:07:13;;;;;;;6.00;3.93;;;25.90;50.50;;;;;;5080449;28;20482;-86
2021/06/22 08:09:40;;;;;;;10.73;5.60;;;25.90;50.70;;;;;;5078822;28;20451;-86
2021/06/22 08:12:08;;;;;;;11.90;3.70;;;26.20;49.90;;;;;;5078014;28;20610;-86
2021/06/22 08:14:36;;;;;;;8.33;3.70;;;26.10;49.50;;;;;;5080694;28;20478;-85
2021/06/22 08:17:03;;;;;;;14.30;5.80;;;26.10;49.80;;;;;;5081487;28;20438;-85
2021/06/22 08:19:30;;;;;;;5.03;3.43;;;26.20;49.90;;;;;;5080766;28;20483;-86
2021/06/22 08:21:57;;;;;;;7.20;3.50;;;26.30;50.00;;;;;;5080017;28;20953;-87
2021/06/22 08:24:25;;;;;;;4.90;3.33;;;26.60;48.70;;;;;;5078050;28;20991;-86
2021/06/22 08:26:52;;;;;;;7.00;3.70;;;27.00;46.90;;;;;;5077241;28;20504;-86
2021/06/22 08:29:19;;;;;;;8.43;3.33;;;27.30;46.90;;;;;;5076619;28;20973;-86
2021/06/22 08:31:47;;;;;;;8.90;3.33;;;27.50;46.40;;;;;;5077051;28;20532;-85
2021/06/22 08:34:14;;;;;;;7.97;3.17;;;27.50;45.00;;;;;;5077858;28;20471;-86
2021/06/22 08:36:41;;;;;;;6.33;2.63;;;27.10;45.80;;;;;;5077958;28;20459;-85
2021/06/22 08:39:08;;;;;;;7.60;3.67;;;26.90;44.40;;;;;;5077716;28;20461;-85
2021/06/22 08:41:37;;;;;;;4.63;2.77;;;26.60;45.80;;;;;;5078618;28;20440;-85
2021/06/22 08:44:08;;;;;;;4.40;3.33;;;26.60;44.80;;;;;;5076811;28;20932;-85
2021/06/22 08:46:36;;;;;;;5.23;2.80;;;26.50;45.20;;;;;;5077083;28;20503;-85
2021/06/22 08:49:05;;;;;;;10.63;3.07;;;26.40;45.90;;;;;;5077502;28;20479;-86
2021/06/22 08:51:33;;;;;;;5.40;2.80;;;26.30;47.60;;;;;;5077884;28;20465;-86
2021/06/22 08:54:00;;;;;;;7.60;3.00;;;26.50;45.70;;;;;;5077116;28;21034;-85
2021/06/22 08:56:27;;;;;;;3.10;2.70;;;26.60;45.20;;;;;;5079654;28;20873;-86
2021/06/22 08:58:53;;;;;;;4.50;2.80;;;26.40;45.00;;;;;;5078363;28;20489;-85
2021/06/22 09:01:20;;;;;;;5.97;2.87;;;26.60;45.40;;;;;;5077314;28;20483;-86
2021/06/22 09:03:47;;;;;;;6.80;3.20;;;26.80;44.70;;;;;;5076010;28;20435;-85
2021/06/22 09:06:16;;;;;;;6.27;2.77;;;26.60;45.00;;;;;;5075866;28;20490;-85
2021/06/22 09:08:51;;;;;;;11.00;3.13;;;26.80;46.10;;;;;;5075548;28;20451;-85
2021/06/22 09:11:18;;;;;;;5.90;2.40;;;27.20;46.30;;;;;;5075862;28;20917;-85
2021/06/22 09:13:57;;;;;;;8.20;3.90;;;27.40;45.40;;;;;;5075551;28;21004;-85
2021/06/22 09:16:24;;;;;;;7.13;2.80;;;27.80;43.70;;;;;;5087032;28;20439;-85
2021/06/22 09:18:51;;;;;;;4.50;2.60;;;28.20;44.00;;;;;;5097698;28;20431;-85
2021/06/22 09:21:22;;;;;;;9.40;3.43;;;28.00;43.80;;;;;;5096248;28;20439;-85
2021/06/22 09:23:51;;;;;;;4.40;2.93;;;27.80;45.00;;;;;;5080849;28;20462;-85
2021/06/22 09:26:19;;;;;;;4.27;2.63;;;27.90;44.00;;;;;;5080411;28;20511;-86
2021/06/22 09:28:47;;;;;;;4.80;2.40;;;27.70;44.00;;;;;;5079498;28;20479;-86
2021/06/22 09:31:16;;;;;;;6.37;2.93;;;27.80;43.80;;;;;;5075201;28;20454;-86
2021/06/22 09:33:44;;;;;;;5.73;2.90;;;27.90;43.80;;;;;;5075001;28;20546;-86
2021/06/22 09:36:16;;;;;;;5.10;2.77;;;27.90;43.80;;;;;;5075047;28;20471;-86
2021/06/22 09:38:50;;;;;;;5.90;2.63;;;27.90;43.80;;;;;;5075510;28;20467;-85
2021/06/22 09:41:25;;;;;;;4.83;2.93;;;27.80;43.70;;;;;;5075384;28;20427;-86
2021/06/22 09:43:59;;;;;;;5.80;3.03;;;27.50;43.50;;;;;;5074605;28;20435;-85
2021/06/22 09:46:34;;;;;;;6.43;3.10;;;27.60;43.60;;;;;;5075255;28;20427;-85
2021/06/22 09:49:01;;;;;;;11.13;3.00;;;27.80;43.00;;;;;;5077364;28;20431;-85
2021/06/22 09:51:32;;;;;;;7.23;3.17;;;27.60;43.80;;;;;;5097318;28;20433;-84
2021/06/22 09:54:19;;;;;;;8.47;3.30;;;27.70;44.60;;;;;;5099062;28;20514;-85
2021/06/22 09:57:12;;;;;;;5.00;3.37;;;28.00;43.80;;;;;;5098680;28;20449;-85
2021/06/22 09:59:49;;;;;;;9.03;2.80;;;28.30;42.10;;;;;;5096414;28;20443;-84
2021/06/22 10:02:17;;;;;;;14.27;3.70;;;28.90;42.60;;;;;;5099508;28;20423;-85
2021/06/22 10:04:45;;;;;;;8.67;3.23;;;29.40;42.10;;;;;;5095778;28;20471;-85
2021/06/22 10:07:14;;;;;;;5.60;3.20;;;29.60;39.40;;;;;;5078426;28;20501;-85
2021/06/22 10:09:43;;;;;;;6.10;3.20;;;30.00;38.30;;;;;;5079353;28;20557;-86
2021/06/22 10:12:11;;;;;;;7.33;3.10;;;30.30;38.50;;;;;;5079035;28;20443;-86
2021/06/22 10:14:40;;;;;;;5.97;2.70;;;29.80;38.20;;;;;;5078804;28;20514;-86
2021/06/22 10:17:09;;;;;;;3.93;2.90;;;29.80;38.50;;;;;;5078901;28;20473;-85
2021/06/22 10:19:37;;;;;;;6.23;2.50;;;29.90;37.70;;;;;;5077572;28;20444;-85
2021/06/22 10:22:06;;;;;;;6.20;3.13;;;29.80;38.00;;;;;;5078718;28;20447;-88
2021/06/22 10:24:35;;;;;;;8.83;2.70;;;29.70;38.20;;;;;;5078581;28;20463;-88
2021/06/22 10:27:03;;;;;;;6.70;3.27;;;29.50;39.50;;;;;;5079065;28;20447;-88
2021/06/22 10:29:31;;;;;;;11.30;3.57;;;29.70;39.80;;;;;;5085039;28;20496;-89
2021/06/22 10:32:00;;;;;;;4.27;2.37;;;29.80;39.10;;;;;;5096576;28;20466;-88
2021/06/22 10:34:27;;;;;;;2.77;2.20;;;29.80;38.40;;;;;;5097062;28;20585;-88
2021/06/22 10:36:59;;;;;;;6.90;2.33;;;30.00;35.00;;;;;;5093554;28;20412;-88
2021/06/22 10:39:36;;;;;;;6.97;2.67;;;29.90;37.30;;;;;;5088158;28;20451;-89
2021/06/22 10:42:11;;;;;;;6.50;2.67;;;30.00;36.20;;;;;;5098288;28;20451;-88
2021/06/22 10:44:43;;;;;;;4.10;2.70;;;29.80;37.30;;;;;;5098343;28;20482;-88
2021/06/22 10:47:31;;;;;;;3.77;2.97;;;29.10;38.80;;;;;;5098188;28;20438;-86
2021/06/22 10:50:27;;;;;;;4.70;2.80;;;28.70;38.50;;;;;;5089164;28;20796;-87
2021/06/22 10:53:03;;;;;;;6.90;2.90;;;29.50;37.40;;;;;;5073287;28;20483;-86
2021/06/22 10:55:57;;;;;;;13.83;2.80;;;30.00;37.50;;;;;;5076492;28;20525;-85
2021/06/22 10:58:26;;;;;;;12.13;2.07;;;30.20;36.30;;;;;;5051855;28;20452;-84
2021/06/22 11:01:12;;;;;;;6.50;2.30;;;30.40;36.20;;;;;;5098362;28;20506;-82
2021/06/22 11:03:39;;;;;;;3.60;2.30;;;30.80;35.10;;;;;;5098514;28;20439;-83
2021/06/22 11:06:31;;;;;;;7.27;2.30;;;30.80;34.10;;;;;;5098347;28;20471;-84
2021/06/22 11:09:18;;;;;;;5.63;2.47;;;30.70;33.80;;;;;;5092742;28;20739;-86
2021/06/22 11:11:45;;;;;;;94.43;64.30;;;31.10;34.20;;;;;;5074435;28;20538;-86
2021/06/22 11:14:14;;;;;;;5.93;3.83;;;31.30;32.80;;;;;;5074300;28;20502;-86
2021/06/22 11:16:42;;;;;;;3.10;2.10;;;31.10;33.00;;;;;;5073959;28;20454;-87
2021/06/22 11:19:11;;;;;;;4.60;2.37;;;31.00;33.50;;;;;;5074052;28;20453;-86
2021/06/22 11:22:00;;;;;;;4.73;2.40;;;30.70;33.40;;;;;;5074400;28;20532;-86
2021/06/22 11:24:29;;;;;;;5.23;2.00;;;30.10;33.40;;;;;;5068251;28;20515;-86
2021/06/22 11:27:04;;;;;;;7.13;2.20;;;29.80;34.50;;;;;;5074775;28;20451;-86
2021/06/22 11:29:53;;;;;;;5.53;2.50;;;29.40;35.30;;;;;;5074466;28;20427;-86
2021/06/22 11:32:39;;;;;;;4.43;2.77;;;29.20;36.50;;;;;;5074318;28;20423;-87
2021/06/22 11:35:17;;;;;;;4.03;2.40;;;29.30;36.30;;;;;;5075824;28;20574;-86
2021/06/22 11:37:46;;;;;;;3.70;2.40;;;28.90;36.70;;;;;;5085754;28;20432;-84
2021/06/22 11:40:26;;;;;;;4.50;2.20;;;28.80;36.70;;;;;;5090970;28;20501;-84
2021/06/22 11:43:08;;;;;;;5.13;2.67;;;28.50;36.70;;;;;;5077856;28;20408;-85
2021/06/22 11:45:39;;;;;;;3.30;2.47;;;27.30;39.00;;;;;;5074991;28;20474;-85
2021/06/22 11:48:06;;;;;;;3.00;2.37;;;27.30;39.50;;;;;;5075343;28;20438;-86
2021/06/22 11:50:47;;;;;;;6.00;2.63;;;27.50;39.20;;;;;;5074936;28;20435;-87
2021/06/22 11:53:15;;;;;;;19.90;5.70;;;27.60;38.80;;;;;;5075465;28;20437;-86
2021/06/22 11:55:53;;;;;;;10.27;6.87;;;27.10;40.90;;;;;;5074057;28;20552;-86
2021/06/22 11:58:26;;;;;;;19.53;12.17;;;26.90;41.90;;;;;;5074933;28;20427;-86
2021/06/22 12:00:59;;;;;;;13.93;7.13;;;26.60;42.90;;;;;;5074158;28;20427;-86
2021/06/22 12:03:32;;;;;;;16.80;7.73;;;26.50;42.80;;;;;;5076208;28;20919;-86
2021/06/22 12:06:10;;;;;;;204.37;135.57;;;26.10;43.80;;;;;;5078960;28;20532;-87
2021/06/22 12:08:39;;;;;;;11.47;7.63;;;25.90;44.60;;;;;;5085018;28;20493;-87
2021/06/22 12:11:06;;;;;;;20.03;7.03;;;25.60;45.50;;;;;;5082445;28;20471;-87
2021/06/22 12:13:36;;;;;;;10.63;6.97;;;25.40;46.80;;;;;;5079550;28;20450;-87
2021/06/22 12:16:22;;;;;;;13.83;7.10;;;25.40;46.70;;;;;;5078298;28;20474;-87
2021/06/22 12:18:49;;;;;;;20.07;7.47;;;25.50;47.80;;;;;;5076327;28;20865;-85
2021/06/22 12:21:16;;;;;;;7.93;5.20;;;25.60;48.00;;;;;;5077191;28;20471;-85
2021/06/22 12:23:43;;;;;;;8.23;5.20;;;25.30;46.60;;;;;;5077096;28;20538;-85
2021/06/22 12:26:12;;;;;;;14.47;6.87;;;24.60;47.30;;;;;;5077153;28;20526;-86
2021/06/22 12:28:39;;;;;;;14.93;6.77;;;24.10;50.00;;;;;;5077461;28;20513;-85
2021/06/22 12:31:07;;;;;;;13.87;6.43;;;24.10;51.40;;;;;;5077531;28;20530;-86
2021/06/22 12:33:40;;;;;;;5.43;3.53;;;24.40;50.50;;;;;;5078097;28;20428;-87
2021/06/22 12:36:09;;;;;;;4.97;2.60;;;24.20;50.10;;;;;;5078482;28;20528;-87
2021/06/22 12:38:39;;;;;;;7.30;3.70;;;23.80;50.80;;;;;;5077859;28;20470;-87
2021/06/22 12:41:08;;;;;;;7.13;4.83;;;23.40;51.30;;;;;;5078867;28;20459;-86
2021/06/22 12:43:49;;;;;;;12.87;4.83;;;22.90;53.00;;;;;;5078030;28;20436;-86
2021/06/22 12:46:19;;;;;;;17.70;4.50;;;23.20;53.90;;;;;;5078636;28;20522;-86
2021/06/22 12:48:49;;;;;;;4.30;3.63;;;23.90;52.20;;;;;;5077554;28;20443;-87
2021/06/22 12:51:17;;;;;;;5.93;3.03;;;24.50;50.70;;;;;;5079532;28;20797;-86
2021/06/22 12:53:48;;;;;;;3.53;2.60;;;24.80;49.40;;;;;;5079417;28;20522;-87